createdAt,value
2023-03-25T00:04:21.721Z,7.43
2023-03-25T00:09:21.634Z,7.43
2023-03-25T00:14:21.652Z,7.37
2023-03-25T00:19:21.639Z,7.43
2023-03-25T00:24:21.625Z,7.37
2023-03-25T00:29:21.660Z,7.43
2023-03-25T00:34:21.618Z,7.31
2023-03-25T00:39:21.595Z,7.25
2023-03-25T00:44:21.646Z,6.93
2023-03-25T00:49:21.601Z,7.12
2023-03-25T00:54:21.656Z,7.12
2023-03-25T00:59:21.609Z,7
2023-03-25T01:04:21.922Z,7.18
2023-03-25T01:09:21.593Z,7.06
2023-03-25T01:14:21.631Z,6.87
2023-03-25T01:19:21.620Z,6.81
2023-03-25T01:24:21.581Z,6.75
2023-03-25T01:29:21.596Z,6.68
2023-03-25T01:34:21.637Z,6.43
2023-03-25T01:39:21.584Z,6.18
2023-03-25T01:44:21.579Z,6.18
2023-03-25T01:49:21.600Z,6.31
2023-03-25T01:54:21.572Z,6.56
2023-03-25T01:59:21.541Z,6.75
2023-03-25T02:04:21.555Z,6.81
2023-03-25T02:09:21.543Z,6.93
2023-03-25T02:14:21.527Z,7.06
2023-03-25T02:19:21.534Z,7.25
2023-03-25T02:24:21.540Z,7.12
2023-03-25T02:29:21.533Z,7.12
2023-03-25T02:34:21.552Z,7
2023-03-25T02:39:21.521Z,6.93
2023-03-25T02:44:21.532Z,6.87
2023-03-25T02:49:21.516Z,7.06
2023-03-25T02:54:21.506Z,7.06
2023-03-25T02:59:21.532Z,7.12
2023-03-25T03:04:21.493Z,7.31
2023-03-25T03:09:21.497Z,7.25
2023-03-25T03:14:21.517Z,7.18
2023-03-25T03:19:21.489Z,7.25
2023-03-25T03:24:21.487Z,7.25
2023-03-25T03:29:21.501Z,6.93
2023-03-25T03:34:21.476Z,7.06
2023-03-25T03:39:21.479Z,7.12
2023-03-25T03:44:21.474Z,7.25
2023-03-25T03:49:21.469Z,7.25
2023-03-25T03:54:21.466Z,7.18
2023-03-25T03:59:21.437Z,7.06
2023-03-25T04:04:21.448Z,7
2023-03-25T04:09:21.450Z,6.87
2023-03-25T04:14:21.469Z,6.68
2023-03-25T04:19:21.446Z,6.81
2023-03-25T04:24:21.435Z,6.56
2023-03-25T04:29:21.456Z,6.5
2023-03-25T04:39:21.425Z,6.62
2023-03-25T04:44:21.448Z,6.56
2023-03-25T04:49:21.520Z,6.62
2023-03-25T04:54:21.414Z,6.43
2023-03-25T04:59:21.453Z,6.56
2023-03-25T05:04:21.517Z,6.43
2023-03-25T05:09:21.401Z,6.5
2023-03-25T05:14:21.388Z,6.56
2023-03-25T05:19:21.397Z,6.68
2023-03-25T05:24:21.375Z,6.81
2023-03-25T05:29:21.378Z,7.87
2023-03-25T05:34:21.397Z,7.37
2023-03-25T05:39:21.353Z,7
2023-03-25T05:44:21.358Z,7
2023-03-25T05:49:21.413Z,7.25
2023-03-25T05:54:21.356Z,7.12
2023-03-25T05:59:21.350Z,7.31
2023-03-25T06:04:21.436Z,7.5
2023-03-25T06:09:21.331Z,7.5
2023-03-25T06:14:21.330Z,7.68
2023-03-25T06:19:21.340Z,11.56
2023-03-25T06:24:21.363Z,12.81
2023-03-25T06:29:21.326Z,12.93
2023-03-25T06:34:23.275Z,10.06
2023-03-25T06:39:21.325Z,9.18
2023-03-25T06:44:24.746Z,9.31
2023-03-25T06:49:21.322Z,10.18
2023-03-25T06:54:21.317Z,11.93
2023-03-25T06:59:21.292Z,12.62
2023-03-25T07:04:21.326Z,10
2023-03-25T07:09:21.335Z,9.81
2023-03-25T07:14:21.279Z,8.87
2023-03-25T07:19:21.286Z,8.68
2023-03-25T07:24:21.270Z,8.43
2023-03-25T07:29:21.273Z,8.18
2023-03-25T07:34:21.292Z,8.37
2023-03-25T07:39:21.280Z,8.31
2023-03-25T07:44:21.274Z,8.62
2023-03-25T07:49:21.247Z,8.43
2023-03-25T07:54:21.282Z,8.62
2023-03-25T07:59:21.245Z,9
2023-03-25T08:04:21.244Z,8.56
2023-03-25T08:09:21.217Z,9.18
2023-03-25T08:14:21.224Z,9.81
2023-03-25T08:19:21.244Z,9
2023-03-25T08:24:21.215Z,9.56
2023-03-25T08:29:21.192Z,9.56
2023-03-25T08:34:21.222Z,10
2023-03-25T08:39:21.205Z,9.62
2023-03-25T08:44:21.173Z,9.56
2023-03-25T08:49:21.215Z,9.56
2023-03-25T08:54:21.283Z,9.68
2023-03-25T08:59:21.174Z,10.06
2023-03-25T09:04:21.162Z,10.37
2023-03-25T09:09:21.184Z,10.62
2023-03-25T09:14:21.150Z,10.93
2023-03-25T09:19:21.139Z,11.75
2023-03-25T09:24:21.154Z,11.81
2023-03-25T09:29:21.139Z,11.06
2023-03-25T09:34:21.127Z,10.75
2023-03-25T09:39:21.120Z,9.25
2023-03-25T09:44:21.119Z,9.81
2023-03-25T09:49:21.112Z,9.62
2023-03-25T09:54:21.118Z,9.62
2023-03-25T09:59:21.130Z,9.18
2023-03-25T10:04:21.090Z,9.56
2023-03-25T10:09:21.096Z,10.31
2023-03-25T10:14:21.087Z,9.87
2023-03-25T10:19:21.084Z,10.75
2023-03-25T10:24:21.102Z,11.37
2023-03-25T10:29:21.090Z,12.12
2023-03-25T10:34:21.060Z,11.87
2023-03-25T10:39:21.048Z,11.87
2023-03-25T10:44:21.065Z,11.62
2023-03-25T10:49:21.063Z,11.68
2023-03-25T10:54:21.032Z,12
2023-03-25T10:59:21.046Z,12.25
2023-03-25T11:04:21.039Z,11.37
2023-03-25T11:09:21.194Z,12.25
2023-03-25T11:14:21.037Z,11.75
2023-03-25T11:19:20.993Z,11.68
2023-03-25T11:24:20.987Z,11.68
2023-03-25T11:29:21.017Z,11.81
2023-03-25T11:34:21.005Z,11.43
2023-03-25T11:39:21.367Z,11
2023-03-25T11:44:20.998Z,12.06
2023-03-25T11:49:20.983Z,12.06
2023-03-25T11:54:20.989Z,12.12
2023-03-25T11:59:20.967Z,11.18
2023-03-25T12:04:20.952Z,11.43
2023-03-25T12:09:20.971Z,11.81
2023-03-25T12:14:20.943Z,12
2023-03-25T12:19:20.958Z,11.37
2023-03-25T12:24:20.941Z,11.62
2023-03-25T12:29:20.917Z,11.93
2023-03-25T12:34:20.953Z,11.68
2023-03-25T12:39:26.958Z,12.25
2023-03-25T12:44:20.911Z,11.5
2023-03-25T12:49:20.922Z,11.31
2023-03-25T12:54:20.902Z,11.62
2023-03-25T12:59:20.889Z,11.93
2023-03-25T13:04:20.910Z,11.75
2023-03-25T13:09:20.867Z,11.81
2023-03-25T13:14:20.875Z,11.18
2023-03-25T13:19:20.864Z,11.12
2023-03-25T13:24:20.888Z,11.18
2023-03-25T13:29:20.862Z,11.62
2023-03-25T13:34:25.280Z,11.5
2023-03-25T13:39:20.845Z,11.12
2023-03-25T13:44:20.855Z,11.25
2023-03-25T13:49:20.847Z,11.37
2023-03-25T13:54:22.522Z,11.18
2023-03-25T13:59:20.845Z,11.37
2023-03-25T14:04:20.825Z,10.93
2023-03-25T14:09:20.820Z,11.25
2023-03-25T14:14:20.820Z,11.25
2023-03-25T14:19:20.805Z,10.56
2023-03-25T14:24:20.818Z,10.75
2023-03-25T14:29:20.825Z,10.37
2023-03-25T14:34:20.816Z,10.25
2023-03-25T14:39:20.809Z,9.87
2023-03-25T14:44:20.793Z,10.62
2023-03-25T14:49:20.782Z,10.62
2023-03-25T14:54:20.788Z,10.5
2023-03-25T14:59:20.770Z,10.5
2023-03-25T15:04:20.753Z,10.62
2023-03-25T15:09:20.747Z,10.81
2023-03-25T15:14:20.750Z,10.68
2023-03-25T15:19:20.785Z,10.93
2023-03-25T15:24:20.730Z,10.68
2023-03-25T15:29:20.754Z,10.68
2023-03-25T15:34:22.875Z,10.56
2023-03-25T15:39:20.727Z,10.5
2023-03-25T15:44:23.053Z,10.43
2023-03-25T15:49:20.820Z,10.5
2023-03-25T15:54:20.730Z,10.43
2023-03-25T15:59:20.734Z,10.18
2023-03-25T16:04:20.698Z,9.87
2023-03-25T16:09:20.704Z,10.06
2023-03-25T16:14:20.691Z,9.87
2023-03-25T16:19:20.685Z,10
2023-03-25T16:24:20.729Z,10
2023-03-25T16:29:20.680Z,9.93
2023-03-25T16:34:20.695Z,10.12
2023-03-25T16:39:20.654Z,10.37
2023-03-25T16:44:20.651Z,10.12
2023-03-25T16:49:20.660Z,9.5
2023-03-25T16:54:20.645Z,9.37
2023-03-25T16:59:20.627Z,9.31
2023-03-25T17:04:20.663Z,9.12
2023-03-25T17:09:20.630Z,9.31
2023-03-25T17:14:20.633Z,9.31
2023-03-25T17:19:20.657Z,9.31
2023-03-25T17:24:21.236Z,9.37
2023-03-25T17:29:20.640Z,9.56
2023-03-25T17:34:20.614Z,9.25
2023-03-25T17:39:20.620Z,8.68
2023-03-25T17:44:20.590Z,8.81
2023-03-25T17:49:20.585Z,8.93
2023-03-25T17:54:20.576Z,8.87
2023-03-25T17:59:20.598Z,8.81
2023-03-25T18:04:20.573Z,8.62
2023-03-25T18:09:20.589Z,8.5
2023-03-25T18:14:20.538Z,8.37
2023-03-25T18:19:20.575Z,8.25
2023-03-25T18:24:20.559Z,8.12
2023-03-25T18:29:20.572Z,7.93
2023-03-25T18:34:20.548Z,8
2023-03-25T18:39:20.549Z,8
2023-03-25T18:44:20.533Z,7.93
2023-03-25T18:49:20.540Z,7.81
2023-03-25T18:54:20.544Z,7.62
2023-03-25T18:59:20.524Z,7.75
2023-03-25T19:04:20.529Z,7.75
2023-03-25T19:09:22.289Z,7.81
2023-03-25T19:14:20.502Z,7.75
2023-03-25T19:19:20.516Z,7.75
2023-03-25T19:24:20.522Z,7.68
2023-03-25T19:29:20.511Z,7.56
2023-03-25T19:34:20.486Z,7.5
2023-03-25T19:39:20.496Z,7.43
2023-03-25T19:44:20.488Z,7.56
2023-03-25T19:49:29.137Z,7.62
2023-03-25T19:54:22.366Z,7.37
2023-03-25T19:59:20.492Z,7.5
2023-03-25T20:04:20.473Z,7.37
2023-03-25T20:09:20.464Z,7.37
2023-03-25T20:14:20.466Z,7.25
2023-03-25T20:19:20.467Z,7.06
2023-03-25T20:24:20.457Z,7.12
2023-03-25T20:29:20.474Z,7.06
2023-03-25T20:34:20.431Z,7
2023-03-25T20:39:20.430Z,7.12
2023-03-25T20:44:20.462Z,6.93
2023-03-25T20:49:20.433Z,6.93
2023-03-25T20:54:20.431Z,7.12
2023-03-25T20:59:20.449Z,7
2023-03-25T21:04:20.420Z,7
2023-03-25T21:09:20.404Z,7.06
2023-03-25T21:14:20.431Z,7
2023-03-25T21:19:20.392Z,7.12
2023-03-25T21:24:20.392Z,7.06
2023-03-25T21:29:20.429Z,6.93
2023-03-25T21:34:20.396Z,7.06
2023-03-25T21:39:20.415Z,7.18
2023-03-25T21:44:20.382Z,7.06
2023-03-25T21:49:20.383Z,7.18
2023-03-25T21:54:20.381Z,7.06
2023-03-25T21:59:20.385Z,6.87
2023-03-25T22:04:20.354Z,6.87
2023-03-25T22:09:20.358Z,6.81
2023-03-25T22:14:20.397Z,6.93
2023-03-25T22:19:21.014Z,6.87
2023-03-25T22:24:20.352Z,6.81
2023-03-25T22:29:20.342Z,6.68
2023-03-25T22:34:20.306Z,6.81
2023-03-25T22:39:20.345Z,6.87
2023-03-25T22:44:20.317Z,6.81
2023-03-25T22:49:20.323Z,6.75
2023-03-25T22:54:20.336Z,6.68
2023-03-25T22:59:20.357Z,6.68
2023-03-25T23:04:20.350Z,6.75
2023-03-25T23:09:20.306Z,6.87
2023-03-25T23:14:20.320Z,6.81
2023-03-25T23:19:20.301Z,6.68
2023-03-25T23:24:20.294Z,6.62
2023-03-25T23:29:20.600Z,6.56
2023-03-25T23:34:20.302Z,6.56
2023-03-25T23:39:20.287Z,6.5
2023-03-25T23:44:20.452Z,6.81
2023-03-25T23:49:20.375Z,6.56
2023-03-25T23:54:20.270Z,6.43
2023-03-25T23:59:20.273Z,6.25
